F/V J. Louis Vincent — FQBL — position and weather

sailwx.info

Track history (hours):
 
Tides and Currents Weather Stations Pressure Air Temp Water Temp Dewpoint Dewpoint Depression Visibility Wind Speed Wind Dir Waves Ship Positions

F/V J. Louis Vincent

Last reported at 2014-Nov-27 17:31 UTC. Time now 2014-Nov-28 09:35 UTC.
Position N 43°24' E 003°42'.

Length 29 m.

Type: Fishing. MMSI: 227146600.

Date/timePositionNaut miles runAvg speedWind from/ knotsBaromVisibWave heightAir tempDewpointWater temp
2014-Nov-27 17:31N 43°24' E 003°42'5 4.6
2014-Nov-27 16:33N 43°20' E 003°44'15 7.6
2014-Nov-27 14:33N 43°06' E 003°52'4 4.5
2014-Nov-27 13:33N 43°02' E 003°54'4 4.5
2014-Nov-27 12:33N 42°57' E 003°56'3 3.3
2014-Nov-27 11:33N 42°55' E 004°00'4 4.3
2014-Nov-27 10:33N 42°56' E 004°06'4 4.5
2014-Nov-27 09:33N 42°54' E 004°12'4 4.4
2014-Nov-27 08:33N 42°54' E 004°18'3 1.8
2014-Nov-27 07:10N 42°56' E 004°17'3 4.4
2014-Nov-27 06:28N 42°58' E 004°13'4 4.5
2014-Nov-27 05:33N 42°59' E 004°08'30 2.5
2014-Nov-26 17:33N 43°24' E 003°44'2 1.7
2014-Nov-26 16:31N 43°24' E 003°42'2 2.2
2014-Nov-26 15:32N 43°22' E 003°43'31 6.3
2014-Nov-26 10:33N 42°55' E 004°05'5 4.4
2014-Nov-26 09:27N 42°53' E 004°11'4 4.4
2014-Nov-26 08:32N 42°53' E 004°17'23 4.4
2014-Nov-26 03:23N 43°10' E 003°56'1011.8
2014-Nov-26 02:31N 43°18' E 003°47'24 1.6
2014-Nov-25 11:12N 43°03' E 004°13'3 4.6
2014-Nov-25 10:28N 43°01' E 004°17'9 0.5
2014-Nov-24 14:06N 43°10' E 004°18'4 4.6
2014-Nov-24 13:10N 43°07' E 004°22'5 3.1
2014-Nov-24 11:29N 43°04' E 004°27'5 4.4
2014-Nov-24 10:18N 43°04' E 004°34'  
2014-Nov-21 17:06N 43°24' E 003°44'2 2.4
2014-Nov-21 16:21N 43°24' E 003°42'43 8.8
2014-Nov-21 11:24N 43°00' E 004°32'43 2.5
2014-Nov-20 18:23N 43°24' E 003°42'2 2.2
2014-Nov-20 17:25N 43°22' E 003°43'1213.1
2014-Nov-20 16:32N 43°12' E 003°49'1211.5
2014-Nov-20 15:29N 43°00' E 003°55'6 6.2
2014-Nov-20 14:32N 42°55' E 003°58'5 4.4
2014-Nov-20 13:30N 42°57' E 004°04'4 4.4
2014-Nov-20 12:30N 42°57' E 004°10'4 3.4
2014-Nov-20 11:28N 42°56' E 004°15'5 3.9
2014-Nov-20 10:08N 42°51' E 004°19'4 4.3
2014-Nov-20 09:19N 42°48' E 004°17'4 1.6
2014-Nov-20 07:06N 42°51' E 004°13'40 3.0
2014-Nov-19 17:26N 43°24' E 003°42'1212.6
2014-Nov-19 16:30N 43°31' E 003°54'2317.6
2014-Nov-19 15:11N 43°12' E 004°13'26 8.9
2014-Nov-19 12:14N 43°02' E 004°46'4 4.7
2014-Nov-19 11:23N 43°02' E 004°51'6 5.0
2014-Nov-19 10:14N 43°03' E 004°59'2 2.2
2014-Nov-19 09:25N 43°02' E 004°57'3 3.5
2014-Nov-19 08:33N 43°02' E 004°53'5 4.5
2014-Nov-19 07:33N 43°03' E 004°47'5 4.5
2014-Nov-19 06:33N 43°03' E 004°41'46 3.3
2014-Nov-18 16:30N 43°24' E 003°44'2 2.0
2014-Nov-18 15:33N 43°24' E 003°42'4212.4
2014-Nov-18 12:09N 42°59' E 004°29'3 3.6
2014-Nov-18 11:24N 42°59' E 004°32'4 4.7
2014-Nov-18 10:32N 42°58' E 004°38'4 4.3
2014-Nov-18 09:33N 42°58' E 004°44'52 3.4
2014-Nov-17 18:11N 43°24' E 003°42'  
Track history (hours):
 
Tides and Currents Weather Stations Pressure Air Temp Water Temp Dewpoint Dewpoint Depression Visibility Wind Speed Wind Dir Waves Ship Positions

F/V J. Louis Vincent

Last reported at 2014-Nov-27 17:31 UTC. Time now 2014-Nov-28 09:35 UTC.
Position N 43°24' E 003°42'.

Length 29 m.

Type: Fishing. MMSI: 227146600.

Date/timePositionNaut miles runAvg speedWind from/ knotsBaromVisibWave heightAir tempDewpointWater temp
2014-Nov-27 17:31N 43°24' E 003°42'5 4.6
2014-Nov-27 16:33N 43°20' E 003°44'15 7.6
2014-Nov-27 14:33N 43°06' E 003°52'4 4.5
2014-Nov-27 13:33N 43°02' E 003°54'4 4.5
2014-Nov-27 12:33N 42°57' E 003°56'3 3.3
2014-Nov-27 11:33N 42°55' E 004°00'4 4.3
2014-Nov-27 10:33N 42°56' E 004°06'4 4.5
2014-Nov-27 09:33N 42°54' E 004°12'4 4.4
2014-Nov-27 08:33N 42°54' E 004°18'3 1.8
2014-Nov-27 07:10N 42°56' E 004°17'3 4.4
2014-Nov-27 06:28N 42°58' E 004°13'4 4.5
2014-Nov-27 05:33N 42°59' E 004°08'30 2.5
2014-Nov-26 17:33N 43°24' E 003°44'2 1.7
2014-Nov-26 16:31N 43°24' E 003°42'2 2.2
2014-Nov-26 15:32N 43°22' E 003°43'31 6.3
2014-Nov-26 10:33N 42°55' E 004°05'5 4.4
2014-Nov-26 09:27N 42°53' E 004°11'4 4.4
2014-Nov-26 08:32N 42°53' E 004°17'23 4.4
2014-Nov-26 03:23N 43°10' E 003°56'1011.8
2014-Nov-26 02:31N 43°18' E 003°47'24 1.6
2014-Nov-25 11:12N 43°03' E 004°13'3 4.6
2014-Nov-25 10:28N 43°01' E 004°17'9 0.5
2014-Nov-24 14:06N 43°10' E 004°18'4 4.6
2014-Nov-24 13:10N 43°07' E 004°22'5 3.1
2014-Nov-24 11:29N 43°04' E 004°27'5 4.4
2014-Nov-24 10:18N 43°04' E 004°34'  
2014-Nov-21 17:06N 43°24' E 003°44'2 2.4
2014-Nov-21 16:21N 43°24' E 003°42'43 8.8
2014-Nov-21 11:24N 43°00' E 004°32'43 2.5
2014-Nov-20 18:23N 43°24' E 003°42'2 2.2
2014-Nov-20 17:25N 43°22' E 003°43'1213.1
2014-Nov-20 16:32N 43°12' E 003°49'1211.5
2014-Nov-20 15:29N 43°00' E 003°55'6 6.2
2014-Nov-20 14:32N 42°55' E 003°58'5 4.4
2014-Nov-20 13:30N 42°57' E 004°04'4 4.4
2014-Nov-20 12:30N 42°57' E 004°10'4 3.4
2014-Nov-20 11:28N 42°56' E 004°15'5 3.9
2014-Nov-20 10:08N 42°51' E 004°19'4 4.3
2014-Nov-20 09:19N 42°48' E 004°17'4 1.6
2014-Nov-20 07:06N 42°51' E 004°13'40 3.0
2014-Nov-19 17:26N 43°24' E 003°42'1212.6
2014-Nov-19 16:30N 43°31' E 003°54'2317.6
2014-Nov-19 15:11N 43°12' E 004°13'26 8.9
2014-Nov-19 12:14N 43°02' E 004°46'4 4.7
2014-Nov-19 11:23N 43°02' E 004°51'6 5.0
2014-Nov-19 10:14N 43°03' E 004°59'2 2.2
2014-Nov-19 09:25N 43°02' E 004°57'3 3.5
2014-Nov-19 08:33N 43°02' E 004°53'5 4.5
2014-Nov-19 07:33N 43°03' E 004°47'5 4.5
2014-Nov-19 06:33N 43°03' E 004°41'46 3.3
2014-Nov-18 16:30N 43°24' E 003°44'2 2.0
2014-Nov-18 15:33N 43°24' E 003°42'4212.4
2014-Nov-18 12:09N 42°59' E 004°29'3 3.6
2014-Nov-18 11:24N 42°59' E 004°32'4 4.7
2014-Nov-18 10:32N 42°58' E 004°38'4 4.3
2014-Nov-18 09:33N 42°58' E 004°44'52 3.4
2014-Nov-17 18:11N 43°24' E 003°42'  

Dump ship's entire track history